KBAB/BAB METAR and TAF weather

Enter ICAO airport designator
Station Type Date Time Source
KBAB METAR 2019/04/19 21:58 UTC NOAA

KBAB 192158Z AUTO 00000KT 10SM CLR 27/13 A2984 RMK AO2 SLPNO T02670131 $


Station Type Date Time Source
KBAB Decoded METAR 2019/04/19 21:58 UTC NOAA

Marysville, Beale Air Force Base, CA, United States (KBAB) 39-08N 121-26W
Apr 19, 2019 - 05:58 PM EDT / 2019.04.19 2158 UTC
Wind: Calm:0
Visibility: 10 mile(s):0
Sky conditions: clear
Temperature: 80.1 F (26.7 C)
Dew Point: 55.6 F (13.1 C)
Relative Humidity: 43%
Pressure (altimeter): 29.84 in. Hg (1010 hPa)
ob: KBAB 192158Z AUTO 00000KT 10SM CLR 27/13 A2984 RMK AO2 SLPNO T02670131
cycle: 22

Station Type Date Time Source
KBAB TAF 2019/04/19 19:07 UTC NOAA

TAF KBAB 191903Z 1919/2101 34009KT 9999 FEW200 QNH2990INS
BECMG 1923/1924 18009KT 9999 FEW250 QNH2987INS
BECMG 2018/2019 18009KT 9000 -SHRA BKN015 OVC030 QNH3000INS
BECMG 2021/2022 15012G18KT 9999 VCSH BKN030 QNH2993INS TX26/1921Z TN08/2012Z

Example: see airport list